Likely, California
Current Conditions -  °F | °C
As of 6:55 PM on Monday 20 Oct 2014 (Local Time) from KAAT Reporting Station
Overcast Overcast  
Wind Chill: 44°   Ceiling: 5000
Heat Index: 47°   Visibility: 10mi
Dew Point: 44°   Wind: 6mph
Humidity: 90%   Direction: 270°W
Pressure: 29.9"   Gusts: NA
Location:  41.23°N, 120.51°W
Report Text: KAAT 210155Z AUTO 27005KT 10SM OVC050 08/07 A2990 RMK AO2 RAB05E51 SLP117 P0009 T00830067 $
Loading
Personal Weather Stations






























Interactive Weather Map
Tropical Storm Tracking
New forecast layout! Learn more

10-Day Weather Forecast

Advertisements
Track Severe Weather on mobile